SWR72 LSZH-KIAD
Flight info
| Callsign | SWR72 |
|---|---|
| Flight time | N/A |
| Altitude | 34000 |
| Route | VEBIT T10 TORPA DCT REKLA DCT RLP DCT ROTSI DCT KOTUN DCT AMAXA DCT VESAN DCT RATUK DCT SOVAT/N0456F360 L613 SANDY L722 ICTAM L179 SAWPE DCT OZZIL DCT ARPAK DCT FELCA DCT OFSOX DCT SLANY DCT DIMUS DCT LUNIG DCT MALOT/M080F380 DCT 53N020W 53N030W 52N040W 50N050W DCT ELSIR/N0451F380 N402C ALLEX/N0457F400 DCT KAYCC DCT KYLOH DCT BAF HYPER9 |
| Aircraft | A343/H-SDE2E3FGHIJ4J5M1RWXY/LB1D1 |
Departure
| Time | 2026-05-06 04:56 |
|---|---|
| Airport | Zürich Airport (LSZH) |
Arrival
| Time | N/A |
|---|---|
| Airport | Washington Dulles International Airport (KIAD) |
| Time | Latitude | Longitude | Altitude | Speed | Heading |
|---|---|---|---|---|---|
| 2026-05-06 04:25 | 47.46038 | 8.55736 | 1415 ft | 0 kts | 6° |
| 2026-05-06 04:46 | 47.46018 | 8.55733 | 1409 ft | 4 kts | 6° |
| 2026-05-06 04:47 | 47.45991 | 8.55729 | 1410 ft | 4 kts | 6° |
| 2026-05-06 04:47 | 47.45969 | 8.55726 | 1413 ft | 4 kts | 27° |
| 2026-05-06 04:47 | 47.45955 | 8.55700 | 1414 ft | 4 kts | 82° |
| 2026-05-06 04:47 | 47.45954 | 8.55660 | 1409 ft | 4 kts | 94° |
| 2026-05-06 04:48 | 47.45956 | 8.55627 | 1405 ft | 1 kts | 96° |
| 2026-05-06 04:48 | 47.45957 | 8.55624 | 1405 ft | 0 kts | 96° |
| 2026-05-06 04:48 | 47.45958 | 8.55621 | 1405 ft | 0 kts | 96° |
| 2026-05-06 04:51 | 47.45957 | 8.55626 | 1405 ft | 1 kts | 96° |
| 2026-05-06 04:51 | 47.45956 | 8.55649 | 1408 ft | 4 kts | 97° |
| 2026-05-06 04:51 | 47.45951 | 8.55708 | 1407 ft | 8 kts | 97° |
| 2026-05-06 04:52 | 47.45944 | 8.55802 | 1408 ft | 11 kts | 96° |
| 2026-05-06 04:52 | 47.45935 | 8.55928 | 1417 ft | 14 kts | 96° |
| 2026-05-06 04:52 | 47.45925 | 8.56075 | 1414 ft | 14 kts | 96° |
| 2026-05-06 04:52 | 47.45916 | 8.56201 | 1418 ft | 9 kts | 96° |
| 2026-05-06 04:53 | 47.45917 | 8.56274 | 1418 ft | 7 kts | 71° |
| 2026-05-06 04:53 | 47.45968 | 8.56315 | 1420 ft | 10 kts | 7° |
| 2026-05-06 04:53 | 47.46040 | 8.56329 | 1420 ft | 11 kts | 7° |
| 2026-05-06 04:53 | 47.46101 | 8.56380 | 1423 ft | 9 kts | 46° |
| 2026-05-06 04:54 | 47.46145 | 8.56421 | 1419 ft | 5 kts | 356° |
| 2026-05-06 04:54 | 47.46164 | 8.56399 | 1418 ft | 0 kts | 316° |
| 2026-05-06 04:54 | 47.46165 | 8.56398 | 1420 ft | 3 kts | 316° |
| 2026-05-06 04:55 | 47.46301 | 8.56211 | 1417 ft | 54 kts | 317° |
| 2026-05-06 04:55 | 47.46708 | 8.55657 | 1408 ft | 103 kts | 317° |
| 2026-05-06 04:55 | 47.47338 | 8.54798 | 1405 ft | 142 kts | 317° |
| 2026-05-06 04:55 | 47.48120 | 8.53736 | 1626 ft | 155 kts | 318° |
| 2026-05-06 04:56 | 47.48943 | 8.52670 | 1976 ft | 162 kts | 322° |
| 2026-05-06 04:56 | 47.49887 | 8.51715 | 2393 ft | 166 kts | 324° |
| 2026-05-06 04:56 | 47.50781 | 8.50531 | 2678 ft | 182 kts | 308° |
| 2026-05-06 04:56 | 47.51432 | 8.48822 | 2934 ft | 200 kts | 289° |
| 2026-05-06 04:57 | 47.51674 | 8.46756 | 3389 ft | 207 kts | 272° |
| 2026-05-06 04:57 | 47.51740 | 8.44572 | 3923 ft | 215 kts | 271° |
| 2026-05-06 04:57 | 47.51772 | 8.42391 | 4660 ft | 215 kts | 269° |
| 2026-05-06 04:57 | 47.51495 | 8.40201 | 5322 ft | 216 kts | 244° |
| 2026-05-06 04:58 | 47.50499 | 8.38548 | 5812 ft | 230 kts | 215° |
| 2026-05-06 04:58 | 47.48942 | 8.37630 | 6100 ft | 253 kts | 192° |
| 2026-05-06 04:58 | 47.47176 | 8.37143 | 6669 ft | 261 kts | 192° |
| 2026-05-06 04:58 | 47.45374 | 8.36635 | 7374 ft | 264 kts | 192° |
| 2026-05-06 04:59 | 47.43562 | 8.36078 | 8094 ft | 267 kts | 192° |
| 2026-05-06 04:59 | 47.41741 | 8.35498 | 8821 ft | 269 kts | 192° |
| 2026-05-06 04:59 | 47.39961 | 8.34647 | 9535 ft | 271 kts | 206° |
| 2026-05-06 04:59 | 47.38468 | 8.32927 | 10122 ft | 280 kts | 228° |
| 2026-05-06 05:00 | 47.37382 | 8.30447 | 10420 ft | 297 kts | 240° |
| 2026-05-06 05:00 | 47.36411 | 8.27668 | 10695 ft | 312 kts | 241° |
| 2026-05-06 05:00 | 47.35406 | 8.24748 | 10986 ft | 327 kts | 241° |
| 2026-05-06 05:00 | 47.34348 | 8.21705 | 11305 ft | 338 kts | 240° |
| 2026-05-06 05:01 | 47.33256 | 8.18599 | 11802 ft | 344 kts | 240° |
| 2026-05-06 05:01 | 47.32143 | 8.15454 | 12366 ft | 348 kts | 240° |
| 2026-05-06 05:01 | 47.31020 | 8.12283 | 12971 ft | 350 kts | 240° |
| 2026-05-06 05:01 | 47.29888 | 8.09089 | 13571 ft | 353 kts | 241° |
| 2026-05-06 05:02 | 47.28743 | 8.05870 | 14130 ft | 356 kts | 241° |
| 2026-05-06 05:02 | 47.27686 | 8.02562 | 14678 ft | 359 kts | 249° |
| 2026-05-06 05:02 | 47.27174 | 7.98951 | 15252 ft | 365 kts | 265° |
| 2026-05-06 05:02 | 47.27233 | 7.95215 | 15827 ft | 369 kts | 272° |
| 2026-05-06 05:03 | 47.27519 | 7.91436 | 16391 ft | 372 kts | 275° |
| 2026-05-06 05:03 | 47.27907 | 7.87696 | 16943 ft | 375 kts | 276° |
| 2026-05-06 05:03 | 47.28335 | 7.83893 | 17495 ft | 378 kts | 276° |
| 2026-05-06 05:03 | 47.28762 | 7.80060 | 18061 ft | 380 kts | 276° |
| 2026-05-06 05:04 | 47.29172 | 7.76204 | 18528 ft | 382 kts | 275° |
| 2026-05-06 05:04 | 47.29564 | 7.72314 | 18988 ft | 385 kts | 275° |
| 2026-05-06 05:04 | 47.29944 | 7.68395 | 19455 ft | 388 kts | 274° |
| 2026-05-06 05:04 | 47.30357 | 7.64445 | 19926 ft | 392 kts | 278° |
| 2026-05-06 05:05 | 47.31025 | 7.60531 | 20381 ft | 396 kts | 281° |
| 2026-05-06 05:05 | 47.31799 | 7.56608 | 20840 ft | 400 kts | 283° |
| 2026-05-06 05:05 | 47.32628 | 7.52690 | 21285 ft | 403 kts | 283° |
| 2026-05-06 05:05 | 47.33493 | 7.48738 | 21712 ft | 406 kts | 283° |
| 2026-05-06 05:06 | 47.34372 | 7.44760 | 22103 ft | 410 kts | 283° |
| 2026-05-06 05:06 | 47.35257 | 7.40737 | 22438 ft | 415 kts | 283° |
| 2026-05-06 05:06 | 47.35844 | 7.38054 | 22736 ft | 416 kts | 283° |
| 2026-05-06 05:06 | 47.36729 | 7.33991 | 23239 ft | 416 kts | 283° |
| 2026-05-06 05:07 | 47.37910 | 7.28531 | 23749 ft | 419 kts | 283° |
| 2026-05-06 05:07 | 47.38495 | 7.25810 | 23972 ft | 421 kts | 282° |
| 2026-05-06 05:07 | 47.39380 | 7.21683 | 24295 ft | 423 kts | 282° |
| 2026-05-06 05:07 | 47.40266 | 7.17536 | 24643 ft | 424 kts | 281° |
| 2026-05-06 05:08 | 47.40997 | 7.13338 | 24989 ft | 423 kts | 278° |
| 2026-05-06 05:08 | 47.41666 | 7.09095 | 25327 ft | 424 kts | 277° |
| 2026-05-06 05:08 | 47.42307 | 7.04833 | 25665 ft | 426 kts | 277° |
| 2026-05-06 05:08 | 47.42936 | 7.00551 | 25960 ft | 428 kts | 276° |
| 2026-05-06 05:09 | 47.43563 | 6.96224 | 26299 ft | 430 kts | 276° |
| 2026-05-06 05:09 | 47.44188 | 6.91900 | 26607 ft | 432 kts | 276° |
| 2026-05-06 05:09 | 47.44808 | 6.87611 | 26920 ft | 433 kts | 276° |
| 2026-05-06 05:09 | 47.45439 | 6.83245 | 27223 ft | 435 kts | 276° |
| 2026-05-06 05:10 | 47.46072 | 6.78866 | 27529 ft | 437 kts | 276° |
| 2026-05-06 05:10 | 47.46707 | 6.74464 | 27823 ft | 438 kts | 276° |
| 2026-05-06 05:10 | 47.47343 | 6.70049 | 28092 ft | 440 kts | 276° |
| 2026-05-06 05:10 | 47.47894 | 6.65608 | 28405 ft | 438 kts | 271° |
| 2026-05-06 05:11 | 47.48281 | 6.61143 | 28673 ft | 439 kts | 270° |
| 2026-05-06 05:11 | 47.48632 | 6.56637 | 28920 ft | 441 kts | 270° |
| 2026-05-06 05:11 | 47.48961 | 6.52125 | 29197 ft | 442 kts | 269° |
| 2026-05-06 05:11 | 47.49281 | 6.47609 | 29475 ft | 443 kts | 269° |
| 2026-05-06 05:12 | 47.49597 | 6.43072 | 29735 ft | 444 kts | 269° |
| 2026-05-06 05:12 | 47.49914 | 6.38520 | 29965 ft | 446 kts | 269° |
| 2026-05-06 05:12 | 47.50232 | 6.33952 | 30153 ft | 448 kts | 269° |
| 2026-05-06 05:12 | 47.50552 | 6.29359 | 30340 ft | 450 kts | 269° |
| 2026-05-06 05:13 | 47.50872 | 6.24751 | 30538 ft | 452 kts | 270° |
| 2026-05-06 05:13 | 47.51193 | 6.20112 | 30641 ft | 455 kts | 270° |
| 2026-05-06 05:13 | 47.51514 | 6.15437 | 30816 ft | 457 kts | 270° |
| 2026-05-06 05:13 | 47.51835 | 6.10760 | 31086 ft | 457 kts | 270° |
| 2026-05-06 05:14 | 47.52154 | 6.06090 | 31348 ft | 456 kts | 270° |
| 2026-05-06 05:14 | 47.52471 | 6.01427 | 31613 ft | 456 kts | 270° |
| 2026-05-06 05:14 | 47.52785 | 5.96756 | 31869 ft | 456 kts | 271° |
| 2026-05-06 05:14 | 47.53247 | 5.92128 | 32322 ft | 454 kts | 277° |
| 2026-05-06 05:15 | 47.54105 | 5.87632 | 32743 ft | 455 kts | 286° |
| 2026-05-06 05:15 | 47.55407 | 5.83356 | 33031 ft | 459 kts | 295° |
| 2026-05-06 05:15 | 47.57182 | 5.79390 | 33199 ft | 465 kts | 305° |
| 2026-05-06 05:15 | 47.59280 | 5.75719 | 33472 ft | 466 kts | 308° |
| 2026-05-06 05:16 | 47.61448 | 5.72165 | 33771 ft | 464 kts | 309° |
| 2026-05-06 05:16 | 47.65866 | 5.65143 | 33845 ft | 465 kts | 310° |
| 2026-05-06 05:17 | 47.70265 | 5.58130 | 33845 ft | 464 kts | 309° |
| 2026-05-06 05:17 | 47.74636 | 5.51069 | 33843 ft | 464 kts | 309° |
| 2026-05-06 05:18 | 47.78994 | 5.43976 | 33846 ft | 464 kts | 309° |
| 2026-05-06 05:18 | 47.83338 | 5.36884 | 33838 ft | 463 kts | 309° |
| 2026-05-06 05:19 | 47.87624 | 5.29875 | 33869 ft | 458 kts | 309° |
| 2026-05-06 05:19 | 47.89767 | 5.26362 | 34018 ft | 458 kts | 309° |
| 2026-05-06 05:19 | 47.91909 | 5.22852 | 34178 ft | 458 kts | 309° |
| 2026-05-06 05:19 | 47.94049 | 5.19340 | 34346 ft | 458 kts | 309° |
| 2026-05-06 05:20 | 47.96185 | 5.15822 | 34516 ft | 457 kts | 309° |
| 2026-05-06 05:20 | 47.98321 | 5.12299 | 34671 ft | 457 kts | 309° |
| 2026-05-06 05:20 | 48.00452 | 5.08778 | 34848 ft | 457 kts | 309° |
| 2026-05-06 05:20 | 48.02577 | 5.05265 | 35091 ft | 455 kts | 309° |
| 2026-05-06 05:21 | 48.04694 | 5.01763 | 35255 ft | 454 kts | 309° |
| 2026-05-06 05:21 | 48.06810 | 4.98255 | 35376 ft | 454 kts | 309° |
| 2026-05-06 05:21 | 48.08927 | 4.94743 | 35498 ft | 455 kts | 309° |
| 2026-05-06 05:21 | 48.11045 | 4.91225 | 35614 ft | 455 kts | 309° |
| 2026-05-06 05:22 | 48.13162 | 4.87703 | 35752 ft | 455 kts | 309° |
| 2026-05-06 05:22 | 48.17411 | 4.80620 | 35816 ft | 461 kts | 309° |
| 2026-05-06 05:23 | 48.21722 | 4.73412 | 35814 ft | 467 kts | 309° |
| 2026-05-06 05:23 | 48.28245 | 4.62478 | 35813 ft | 467 kts | 309° |
| 2026-05-06 05:24 | 48.32526 | 4.55292 | 35804 ft | 457 kts | 309° |
| 2026-05-06 05:24 | 48.36767 | 4.48127 | 35809 ft | 460 kts | 309° |
| 2026-05-06 05:25 | 48.41024 | 4.40917 | 35810 ft | 461 kts | 309° |
| 2026-05-06 05:25 | 48.45275 | 4.33703 | 35809 ft | 461 kts | 309° |
| 2026-05-06 05:26 | 48.49526 | 4.26471 | 35810 ft | 461 kts | 310° |
| 2026-05-06 05:26 | 48.53749 | 4.19267 | 35805 ft | 461 kts | 310° |
| 2026-05-06 05:27 | 48.57998 | 4.12000 | 35803 ft | 462 kts | 309° |
| 2026-05-06 05:27 | 48.62240 | 4.04723 | 35803 ft | 461 kts | 309° |
| 2026-05-06 05:28 | 48.66483 | 3.97426 | 35806 ft | 461 kts | 309° |
| 2026-05-06 05:28 | 48.70720 | 3.90129 | 35804 ft | 461 kts | 310° |
| 2026-05-06 05:29 | 48.75577 | 3.83745 | 35808 ft | 463 kts | 321° |
| 2026-05-06 05:29 | 48.80776 | 3.77953 | 35808 ft | 464 kts | 323° |
| 2026-05-06 05:30 | 48.86029 | 3.72252 | 35813 ft | 464 kts | 323° |
| 2026-05-06 05:30 | 48.91275 | 3.66536 | 35822 ft | 464 kts | 323° |
| 2026-05-06 05:31 | 48.96512 | 3.60787 | 35824 ft | 464 kts | 322° |
| 2026-05-06 05:31 | 49.01697 | 3.55068 | 35823 ft | 464 kts | 322° |
| 2026-05-06 05:32 | 49.06930 | 3.49279 | 35828 ft | 464 kts | 323° |
| 2026-05-06 05:32 | 49.12155 | 3.43486 | 35829 ft | 464 kts | 322° |
| 2026-05-06 05:33 | 49.17378 | 3.37679 | 35837 ft | 465 kts | 322° |
| 2026-05-06 05:33 | 49.22604 | 3.31854 | 35844 ft | 465 kts | 323° |
| 2026-05-06 05:34 | 49.27818 | 3.26028 | 35843 ft | 464 kts | 322° |
| 2026-05-06 05:34 | 49.33034 | 3.20182 | 35849 ft | 464 kts | 322° |
| 2026-05-06 05:35 | 49.38232 | 3.14342 | 35849 ft | 464 kts | 322° |
| 2026-05-06 05:35 | 49.43433 | 3.08482 | 35848 ft | 463 kts | 323° |
| 2026-05-06 05:36 | 49.48619 | 3.02624 | 35862 ft | 462 kts | 322° |
| 2026-05-06 05:36 | 49.53793 | 2.96762 | 35861 ft | 462 kts | 322° |
| 2026-05-06 05:37 | 49.58958 | 2.90896 | 35860 ft | 461 kts | 322° |
| 2026-05-06 05:37 | 49.64078 | 2.85065 | 35868 ft | 460 kts | 322° |
| 2026-05-06 05:38 | 49.69230 | 2.79183 | 35865 ft | 461 kts | 322° |
| 2026-05-06 05:38 | 49.74386 | 2.73279 | 35875 ft | 460 kts | 322° |
| 2026-05-06 05:39 | 49.79525 | 2.67401 | 35874 ft | 458 kts | 323° |
| 2026-05-06 05:39 | 49.84706 | 2.61656 | 35875 ft | 458 kts | 324° |
| 2026-05-06 05:40 | 49.89898 | 2.55931 | 35872 ft | 458 kts | 324° |
| 2026-05-06 05:40 | 49.95082 | 2.50174 | 35893 ft | 458 kts | 324° |
| 2026-05-06 05:41 | 50.00257 | 2.44395 | 35883 ft | 458 kts | 323° |
| 2026-05-06 05:41 | 50.05422 | 2.38606 | 35890 ft | 458 kts | 323° |
| 2026-05-06 05:42 | 50.10595 | 2.32792 | 35883 ft | 458 kts | 323° |
| 2026-05-06 05:42 | 50.15724 | 2.27013 | 35886 ft | 457 kts | 323° |
| 2026-05-06 05:43 | 50.20870 | 2.21200 | 35886 ft | 455 kts | 323° |
| 2026-05-06 05:43 | 50.26002 | 2.15386 | 35895 ft | 455 kts | 323° |
| 2026-05-06 05:44 | 50.31127 | 2.09565 | 35895 ft | 455 kts | 323° |
| 2026-05-06 05:44 | 50.36246 | 2.03735 | 35895 ft | 455 kts | 323° |
| 2026-05-06 05:45 | 50.41139 | 1.97771 | 35901 ft | 455 kts | 318° |
| 2026-05-06 05:45 | 50.45852 | 1.91159 | 35900 ft | 455 kts | 317° |
| 2026-05-06 05:46 | 50.50558 | 1.84511 | 35911 ft | 455 kts | 318° |
| 2026-05-06 05:46 | 50.55271 | 1.77982 | 35910 ft | 455 kts | 318° |
| 2026-05-06 05:47 | 50.60038 | 1.71432 | 35911 ft | 455 kts | 318° |
| 2026-05-06 05:47 | 50.64803 | 1.64881 | 35914 ft | 455 kts | 318° |
| 2026-05-06 05:48 | 50.69566 | 1.58308 | 35917 ft | 454 kts | 318° |
| 2026-05-06 05:48 | 50.74312 | 1.51728 | 35916 ft | 454 kts | 318° |
| 2026-05-06 05:49 | 50.79056 | 1.45133 | 35922 ft | 454 kts | 318° |
| 2026-05-06 05:49 | 50.83801 | 1.38530 | 35928 ft | 454 kts | 317° |
| 2026-05-06 05:50 | 50.88518 | 1.31939 | 35931 ft | 450 kts | 317° |
| 2026-05-06 05:50 | 50.93173 | 1.25416 | 35935 ft | 449 kts | 317° |
| 2026-05-06 05:51 | 50.97849 | 1.18848 | 35937 ft | 449 kts | 317° |
| 2026-05-06 05:51 | 51.02521 | 1.12262 | 35938 ft | 449 kts | 316° |
| 2026-05-06 05:52 | 51.06458 | 1.04671 | 35939 ft | 445 kts | 298° |
| 2026-05-06 05:52 | 51.08553 | 0.97176 | 35939 ft | 449 kts | 290° |
| 2026-05-06 05:53 | 51.10645 | 0.87783 | 35986 ft | 450 kts | 288° |
| 2026-05-06 05:53 | 51.12632 | 0.78382 | 36023 ft | 450 kts | 288° |
| 2026-05-06 05:54 | 51.14640 | 0.68931 | 36060 ft | 449 kts | 288° |
| 2026-05-06 05:54 | 51.16652 | 0.59527 | 36093 ft | 447 kts | 288° |
| 2026-05-06 05:55 | 51.18657 | 0.50153 | 36104 ft | 448 kts | 288° |
| 2026-05-06 05:55 | 51.20665 | 0.40717 | 36103 ft | 450 kts | 288° |
| 2026-05-06 05:56 | 51.22657 | 0.31316 | 36102 ft | 450 kts | 288° |
| 2026-05-06 05:56 | 51.24656 | 0.21852 | 36075 ft | 449 kts | 288° |
| 2026-05-06 05:57 | 51.26636 | 0.12407 | 36045 ft | 449 kts | 288° |
| 2026-05-06 05:57 | 51.28610 | 0.02935 | 36015 ft | 449 kts | 288° |
| 2026-05-06 05:58 | 51.30573 | -0.06516 | 35970 ft | 451 kts | 288° |
| 2026-05-06 05:58 | 51.32537 | -0.16014 | 35970 ft | 450 kts | 288° |
| 2026-05-06 05:59 | 51.34488 | -0.25496 | 35989 ft | 449 kts | 288° |
| 2026-05-06 05:59 | 51.36436 | -0.35007 | 35992 ft | 450 kts | 288° |
| 2026-05-06 06:00 | 51.38380 | -0.44543 | 35994 ft | 451 kts | 288° |
| 2026-05-06 06:00 | 51.40315 | -0.54080 | 35993 ft | 450 kts | 287° |
| 2026-05-06 06:01 | 51.42239 | -0.63607 | 35992 ft | 449 kts | 287° |
| 2026-05-06 06:01 | 51.44143 | -0.73086 | 35992 ft | 450 kts | 287° |
| 2026-05-06 06:02 | 51.46052 | -0.82639 | 35990 ft | 450 kts | 287° |
| 2026-05-06 06:02 | 51.47894 | -0.91897 | 35989 ft | 450 kts | 287° |
| 2026-05-06 06:03 | 51.49741 | -1.01225 | 35992 ft | 449 kts | 288° |
| 2026-05-06 06:03 | 51.51627 | -1.10794 | 35994 ft | 450 kts | 287° |
| 2026-05-06 06:04 | 51.53184 | -1.20534 | 35993 ft | 451 kts | 282° |
| 2026-05-06 06:04 | 51.54402 | -1.30402 | 35993 ft | 450 kts | 281° |
| 2026-05-06 06:05 | 51.55561 | -1.40291 | 35990 ft | 450 kts | 281° |
| 2026-05-06 06:05 | 51.56707 | -1.50180 | 36010 ft | 450 kts | 280° |
| 2026-05-06 06:06 | 51.57850 | -1.60065 | 36006 ft | 449 kts | 280° |
| 2026-05-06 06:06 | 51.58941 | -1.69885 | 36007 ft | 449 kts | 278° |
| 2026-05-06 06:07 | 51.59666 | -1.79853 | 36008 ft | 449 kts | 276° |
| 2026-05-06 06:07 | 51.60290 | -1.89861 | 36007 ft | 449 kts | 276° |
| 2026-05-06 06:08 | 51.60957 | -1.99844 | 36007 ft | 449 kts | 276° |
| 2026-05-06 06:08 | 51.61652 | -2.09817 | 36007 ft | 448 kts | 276° |
| 2026-05-06 06:09 | 51.62349 | -2.19788 | 36007 ft | 448 kts | 276° |
| 2026-05-06 06:09 | 51.63036 | -2.29760 | 36007 ft | 448 kts | 276° |
| 2026-05-06 06:10 | 51.63720 | -2.39671 | 36004 ft | 448 kts | 278° |
| 2026-05-06 06:10 | 51.65199 | -2.49394 | 36003 ft | 447 kts | 287° |
| 2026-05-06 06:11 | 51.67051 | -2.58940 | 36004 ft | 446 kts | 288° |
| 2026-05-06 06:11 | 51.68956 | -2.68464 | 36007 ft | 446 kts | 288° |
| 2026-05-06 06:12 | 51.70849 | -2.78006 | 36008 ft | 446 kts | 287° |
| 2026-05-06 06:12 | 51.72721 | -2.87561 | 36020 ft | 446 kts | 287° |
| 2026-05-06 06:13 | 51.74579 | -2.97117 | 36020 ft | 446 kts | 287° |
| 2026-05-06 06:13 | 51.76415 | -3.06609 | 36021 ft | 446 kts | 287° |
| 2026-05-06 06:14 | 51.78256 | -3.16168 | 36018 ft | 445 kts | 287° |
| 2026-05-06 06:14 | 51.80085 | -3.25711 | 36013 ft | 444 kts | 287° |
| 2026-05-06 06:15 | 51.81412 | -3.35428 | 36012 ft | 443 kts | 277° |
| 2026-05-06 06:15 | 51.82078 | -3.45337 | 36006 ft | 443 kts | 275° |
| 2026-05-06 06:16 | 51.82790 | -3.55211 | 36004 ft | 443 kts | 280° |
| 2026-05-06 06:16 | 51.83963 | -3.64986 | 36002 ft | 443 kts | 281° |
| 2026-05-06 06:17 | 51.85220 | -3.74745 | 36002 ft | 443 kts | 281° |
| 2026-05-06 06:17 | 51.86484 | -3.84489 | 36002 ft | 443 kts | 281° |
| 2026-05-06 06:18 | 51.87728 | -3.94198 | 36001 ft | 443 kts | 281° |
| 2026-05-06 06:18 | 51.88966 | -4.03964 | 36001 ft | 443 kts | 281° |
| 2026-05-06 06:19 | 51.90193 | -4.13738 | 36004 ft | 443 kts | 281° |
| 2026-05-06 06:19 | 51.91414 | -4.23521 | 36004 ft | 443 kts | 281° |
| 2026-05-06 06:20 | 51.92624 | -4.33292 | 36007 ft | 443 kts | 281° |
| 2026-05-06 06:20 | 51.93827 | -4.43080 | 36008 ft | 443 kts | 281° |
| 2026-05-06 06:21 | 51.95021 | -4.52853 | 36009 ft | 442 kts | 281° |
| 2026-05-06 06:21 | 51.96205 | -4.62629 | 36011 ft | 442 kts | 281° |
| 2026-05-06 06:22 | 51.97381 | -4.72401 | 36012 ft | 441 kts | 280° |
| 2026-05-06 06:22 | 51.98547 | -4.82163 | 36013 ft | 441 kts | 280° |
| 2026-05-06 06:23 | 51.99699 | -4.91883 | 36011 ft | 441 kts | 280° |
| 2026-05-06 06:23 | 52.00847 | -5.01644 | 36015 ft | 440 kts | 280° |
| 2026-05-06 06:24 | 52.01987 | -5.11406 | 36012 ft | 440 kts | 280° |
| 2026-05-06 06:24 | 52.03309 | -5.21088 | 36015 ft | 440 kts | 286° |
| 2026-05-06 06:25 | 52.05145 | -5.30578 | 36018 ft | 440 kts | 287° |
| 2026-05-06 06:26 | 52.08014 | -5.44764 | 36018 ft | 440 kts | 287° |
| 2026-05-06 06:26 | 52.09924 | -5.54245 | 36020 ft | 441 kts | 287° |
| 2026-05-06 06:27 | 52.11817 | -5.63731 | 36021 ft | 441 kts | 287° |
| 2026-05-06 06:27 | 52.13698 | -5.73216 | 36023 ft | 440 kts | 287° |
| 2026-05-06 06:28 | 52.15572 | -5.82711 | 36025 ft | 440 kts | 287° |
| 2026-05-06 06:28 | 52.17449 | -5.92190 | 36024 ft | 440 kts | 287° |
| 2026-05-06 06:29 | 52.19340 | -6.01662 | 36028 ft | 439 kts | 287° |
| 2026-05-06 06:29 | 52.21214 | -6.11087 | 36026 ft | 439 kts | 287° |
| 2026-05-06 06:30 | 52.23086 | -6.20571 | 36026 ft | 439 kts | 287° |
| 2026-05-06 06:30 | 52.24408 | -6.30277 | 36026 ft | 438 kts | 278° |
| 2026-05-06 06:31 | 52.25302 | -6.40111 | 36028 ft | 438 kts | 277° |
| 2026-05-06 06:31 | 52.26124 | -6.49974 | 36029 ft | 438 kts | 277° |
| 2026-05-06 06:32 | 52.26938 | -6.59838 | 36029 ft | 438 kts | 277° |
| 2026-05-06 06:32 | 52.27754 | -6.69704 | 36028 ft | 438 kts | 277° |
| 2026-05-06 06:33 | 52.28567 | -6.79582 | 36033 ft | 438 kts | 277° |
| 2026-05-06 06:33 | 52.29367 | -6.89391 | 36037 ft | 438 kts | 277° |
| 2026-05-06 06:34 | 52.30164 | -6.99280 | 36035 ft | 438 kts | 277° |
| 2026-05-06 06:34 | 52.30952 | -7.09161 | 36034 ft | 438 kts | 277° |
| 2026-05-06 06:35 | 52.31730 | -7.19036 | 36035 ft | 438 kts | 277° |
| 2026-05-06 06:35 | 52.32501 | -7.28921 | 36034 ft | 438 kts | 277° |
| 2026-05-06 06:36 | 52.33263 | -7.38801 | 36037 ft | 438 kts | 277° |
| 2026-05-06 06:36 | 52.34017 | -7.48678 | 36036 ft | 438 kts | 277° |
| 2026-05-06 06:37 | 52.34762 | -7.58562 | 36036 ft | 438 kts | 277° |
| 2026-05-06 06:37 | 52.35496 | -7.68401 | 36036 ft | 438 kts | 277° |
| 2026-05-06 06:38 | 52.36225 | -7.78289 | 36038 ft | 438 kts | 277° |
| 2026-05-06 06:38 | 52.36946 | -7.88193 | 36037 ft | 438 kts | 277° |
| 2026-05-06 06:39 | 52.37659 | -7.98088 | 36030 ft | 438 kts | 277° |
| 2026-05-06 06:39 | 52.38244 | -8.06308 | 36040 ft | 438 kts | 277° |
| 2026-05-06 06:40 | 52.38943 | -8.16232 | 36033 ft | 437 kts | 277° |
| 2026-05-06 06:40 | 52.39742 | -8.27727 | 36040 ft | 437 kts | 277° |
| 2026-05-06 06:41 | 52.40522 | -8.35971 | 36040 ft | 437 kts | 281° |
| 2026-05-06 06:41 | 52.41760 | -8.45654 | 36031 ft | 437 kts | 282° |
| 2026-05-06 06:42 | 52.43000 | -8.55421 | 36032 ft | 437 kts | 282° |
| 2026-05-06 06:42 | 52.44170 | -8.65202 | 36032 ft | 437 kts | 281° |
| 2026-05-06 06:43 | 52.45301 | -8.74990 | 36038 ft | 437 kts | 281° |
| 2026-05-06 06:43 | 52.46423 | -8.84806 | 36040 ft | 438 kts | 281° |
| 2026-05-06 06:44 | 52.47539 | -8.94619 | 36040 ft | 438 kts | 281° |
| 2026-05-06 06:44 | 52.48648 | -9.04443 | 36042 ft | 438 kts | 281° |
| 2026-05-06 06:45 | 52.49750 | -9.14271 | 36045 ft | 438 kts | 281° |
| 2026-05-06 06:45 | 52.50845 | -9.24112 | 36044 ft | 438 kts | 281° |
| 2026-05-06 06:46 | 52.51931 | -9.33959 | 36040 ft | 438 kts | 281° |
| 2026-05-06 06:46 | 52.53003 | -9.43753 | 36047 ft | 438 kts | 281° |
| 2026-05-06 06:47 | 52.54073 | -9.53608 | 36041 ft | 438 kts | 281° |
| 2026-05-06 06:47 | 52.55136 | -9.63478 | 36051 ft | 439 kts | 281° |
| 2026-05-06 06:48 | 52.56191 | -9.73350 | 36050 ft | 439 kts | 281° |
| 2026-05-06 06:48 | 52.57240 | -9.83256 | 36054 ft | 439 kts | 281° |
| 2026-05-06 06:49 | 52.58280 | -9.93157 | 36049 ft | 439 kts | 280° |
| 2026-05-06 06:49 | 52.59304 | -10.02995 | 36054 ft | 439 kts | 281° |
| 2026-05-06 06:50 | 52.60329 | -10.12914 | 36057 ft | 441 kts | 281° |
| 2026-05-06 06:50 | 52.61350 | -10.22886 | 36057 ft | 442 kts | 281° |
| 2026-05-06 06:51 | 52.62362 | -10.32862 | 36056 ft | 442 kts | 281° |
| 2026-05-06 06:51 | 52.63365 | -10.42831 | 36057 ft | 442 kts | 281° |
| 2026-05-06 06:52 | 52.64361 | -10.52818 | 36060 ft | 442 kts | 280° |
| 2026-05-06 06:52 | 52.65348 | -10.62804 | 36061 ft | 442 kts | 280° |
| 2026-05-06 06:53 | 52.66327 | -10.72793 | 36059 ft | 442 kts | 280° |
| 2026-05-06 06:53 | 52.67291 | -10.82733 | 36063 ft | 442 kts | 280° |
| 2026-05-06 06:54 | 52.68252 | -10.92721 | 36056 ft | 442 kts | 280° |
| 2026-05-06 06:54 | 52.69207 | -11.02742 | 36059 ft | 442 kts | 280° |
| 2026-05-06 06:55 | 52.70153 | -11.12755 | 36053 ft | 442 kts | 280° |
| 2026-05-06 06:55 | 52.71092 | -11.22797 | 36061 ft | 443 kts | 280° |
| 2026-05-06 06:56 | 52.72024 | -11.32852 | 36062 ft | 443 kts | 281° |
| 2026-05-06 06:56 | 52.72943 | -11.42868 | 36063 ft | 444 kts | 280° |
| 2026-05-06 06:57 | 52.73859 | -11.52945 | 36067 ft | 444 kts | 280° |
| 2026-05-06 06:57 | 52.74768 | -11.63047 | 36067 ft | 444 kts | 280° |
| 2026-05-06 06:58 | 52.75669 | -11.73163 | 36064 ft | 446 kts | 281° |
| 2026-05-06 06:58 | 52.76565 | -11.83308 | 36067 ft | 446 kts | 280° |
| 2026-05-06 06:59 | 52.77451 | -11.93458 | 36067 ft | 446 kts | 280° |
| 2026-05-06 06:59 | 52.78323 | -12.03549 | 36070 ft | 446 kts | 280° |
| 2026-05-06 07:00 | 52.79192 | -12.13698 | 36070 ft | 446 kts | 280° |
| 2026-05-06 07:00 | 52.80053 | -12.23875 | 36075 ft | 447 kts | 281° |
| 2026-05-06 07:01 | 52.80908 | -12.34073 | 36072 ft | 448 kts | 280° |
| 2026-05-06 07:01 | 52.81754 | -12.44281 | 36072 ft | 448 kts | 280° |
| 2026-05-06 07:02 | 52.82593 | -12.54507 | 36072 ft | 449 kts | 280° |
| 2026-05-06 07:02 | 52.83422 | -12.64733 | 36075 ft | 449 kts | 280° |
| 2026-05-06 07:03 | 52.84244 | -12.74974 | 36073 ft | 449 kts | 281° |
| 2026-05-06 07:03 | 52.85058 | -12.85234 | 36078 ft | 450 kts | 280° |
| 2026-05-06 07:04 | 52.85860 | -12.95456 | 36075 ft | 450 kts | 280° |
| 2026-05-06 07:04 | 52.86657 | -13.05735 | 36080 ft | 450 kts | 280° |
| 2026-05-06 07:05 | 52.87446 | -13.16035 | 36083 ft | 450 kts | 280° |
| 2026-05-06 07:05 | 52.88226 | -13.26320 | 36077 ft | 450 kts | 280° |
| 2026-05-06 07:06 | 52.88998 | -13.36636 | 36080 ft | 452 kts | 280° |
| 2026-05-06 07:06 | 52.89763 | -13.46969 | 36084 ft | 452 kts | 280° |
| 2026-05-06 07:07 | 52.90518 | -13.57296 | 36090 ft | 452 kts | 280° |
| 2026-05-06 07:07 | 52.91264 | -13.67642 | 36087 ft | 452 kts | 280° |
| 2026-05-06 07:08 | 52.92002 | -13.77983 | 36072 ft | 452 kts | 280° |
| 2026-05-06 07:08 | 52.92725 | -13.88256 | 36092 ft | 452 kts | 280° |
| 2026-05-06 07:09 | 52.93443 | -13.98597 | 36087 ft | 450 kts | 280° |
| 2026-05-06 07:09 | 52.94150 | -14.08894 | 36089 ft | 449 kts | 280° |
| 2026-05-06 07:10 | 52.94846 | -14.19171 | 36085 ft | 449 kts | 280° |
| 2026-05-06 07:10 | 52.95535 | -14.29454 | 36086 ft | 449 kts | 280° |
| 2026-05-06 07:11 | 52.96215 | -14.39766 | 36087 ft | 449 kts | 280° |
| 2026-05-06 07:11 | 52.96881 | -14.49997 | 36088 ft | 449 kts | 280° |
| 2026-05-06 07:12 | 52.97544 | -14.60313 | 36089 ft | 449 kts | 280° |
| 2026-05-06 07:12 | 52.98196 | -14.70617 | 36089 ft | 449 kts | 280° |
| 2026-05-06 07:13 | 52.98841 | -14.80936 | 36088 ft | 449 kts | 280° |
| 2026-05-06 07:13 | 52.99476 | -14.91258 | 36096 ft | 449 kts | 279° |
| 2026-05-06 07:14 | 53.00101 | -15.01578 | 36087 ft | 449 kts | 279° |
| 2026-05-06 07:14 | 53.00417 | -15.11979 | 36090 ft | 451 kts | 275° |
| 2026-05-06 07:15 | 53.00523 | -15.22343 | 36091 ft | 452 kts | 275° |
| 2026-05-06 07:15 | 53.00656 | -15.32770 | 36097 ft | 451 kts | 275° |
| 2026-05-06 07:16 | 53.00826 | -15.43168 | 36085 ft | 450 kts | 276° |
| 2026-05-06 07:16 | 53.01004 | -15.53537 | 36089 ft | 449 kts | 276° |
| 2026-05-06 07:17 | 53.01174 | -15.63899 | 36094 ft | 449 kts | 276° |
| 2026-05-06 07:17 | 53.01333 | -15.74265 | 36088 ft | 449 kts | 275° |
| 2026-05-06 07:18 | 53.01482 | -15.84635 | 36086 ft | 449 kts | 275° |
| 2026-05-06 07:18 | 53.01621 | -15.95012 | 36091 ft | 449 kts | 275° |
| 2026-05-06 07:19 | 53.01750 | -16.05333 | 36091 ft | 449 kts | 275° |
| 2026-05-06 07:19 | 53.01872 | -16.15710 | 36084 ft | 449 kts | 275° |
| 2026-05-06 07:20 | 53.01984 | -16.26085 | 36084 ft | 449 kts | 275° |
| 2026-05-06 07:20 | 53.02088 | -16.36467 | 36083 ft | 449 kts | 275° |
| 2026-05-06 07:21 | 53.02182 | -16.46850 | 36078 ft | 449 kts | 275° |
| 2026-05-06 07:21 | 53.02267 | -16.57239 | 36090 ft | 450 kts | 275° |
| 2026-05-06 07:22 | 53.02344 | -16.67636 | 36086 ft | 450 kts | 275° |
| 2026-05-06 07:22 | 53.02411 | -16.78029 | 36088 ft | 450 kts | 275° |
| 2026-05-06 07:23 | 53.02469 | -16.88352 | 36091 ft | 450 kts | 275° |
| 2026-05-06 07:23 | 53.02518 | -16.98749 | 36088 ft | 450 kts | 275° |
| 2026-05-06 07:24 | 53.02558 | -17.09137 | 36089 ft | 448 kts | 274° |
| 2026-05-06 07:24 | 53.02588 | -17.19484 | 36089 ft | 448 kts | 274° |
| 2026-05-06 07:25 | 53.02611 | -17.29825 | 36088 ft | 448 kts | 274° |
| 2026-05-06 07:25 | 53.02624 | -17.40191 | 36089 ft | 448 kts | 274° |
| 2026-05-06 07:26 | 53.02628 | -17.50481 | 36089 ft | 448 kts | 274° |
| 2026-05-06 07:26 | 53.02623 | -17.60836 | 36090 ft | 448 kts | 274° |
| 2026-05-06 07:27 | 53.02609 | -17.71177 | 36088 ft | 448 kts | 274° |
| 2026-05-06 07:27 | 53.02586 | -17.81531 | 36085 ft | 448 kts | 274° |
| 2026-05-06 07:28 | 53.02554 | -17.91875 | 36086 ft | 448 kts | 274° |
| 2026-05-06 07:28 | 53.02498 | -18.05648 | 36068 ft | 448 kts | 273° |
| 2026-05-06 07:29 | 53.02445 | -18.16008 | 36091 ft | 448 kts | 273° |
| 2026-05-06 07:29 | 53.02383 | -18.26353 | 36080 ft | 448 kts | 273° |
| 2026-05-06 07:30 | 53.02313 | -18.36697 | 36092 ft | 448 kts | 273° |
| 2026-05-06 07:30 | 53.02233 | -18.47042 | 36092 ft | 448 kts | 273° |
| 2026-05-06 07:31 | 53.02144 | -18.57382 | 36084 ft | 448 kts | 273° |
| 2026-05-06 07:31 | 53.02047 | -18.67650 | 36094 ft | 447 kts | 272° |
| 2026-05-06 07:32 | 53.01941 | -18.77968 | 36091 ft | 446 kts | 272° |
| 2026-05-06 07:32 | 53.01825 | -18.88263 | 36091 ft | 446 kts | 272° |
| 2026-05-06 07:33 | 53.01702 | -18.98554 | 36095 ft | 446 kts | 272° |
| 2026-05-06 07:33 | 53.01569 | -19.08849 | 36090 ft | 446 kts | 272° |
| 2026-05-06 07:34 | 53.01428 | -19.19141 | 36089 ft | 446 kts | 271° |
| 2026-05-06 07:34 | 53.01277 | -19.29437 | 36090 ft | 446 kts | 271° |
| 2026-05-06 07:35 | 53.01118 | -19.39736 | 36097 ft | 446 kts | 271° |
| 2026-05-06 07:35 | 53.00951 | -19.49953 | 36093 ft | 446 kts | 271° |
| 2026-05-06 07:36 | 53.00774 | -19.60244 | 36094 ft | 446 kts | 271° |
| 2026-05-06 07:36 | 53.00588 | -19.70535 | 36092 ft | 446 kts | 271° |
| 2026-05-06 07:37 | 53.00393 | -19.80831 | 36091 ft | 446 kts | 271° |
| 2026-05-06 07:37 | 53.00189 | -19.91126 | 36094 ft | 446 kts | 271° |
| 2026-05-06 07:38 | 53.00118 | -20.01416 | 36094 ft | 445 kts | 275° |
| 2026-05-06 07:38 | 53.00470 | -20.11657 | 36091 ft | 444 kts | 276° |
| 2026-05-06 07:39 | 53.00890 | -20.21893 | 36084 ft | 444 kts | 276° |
| 2026-05-06 07:39 | 53.01310 | -20.32134 | 36094 ft | 444 kts | 276° |
| 2026-05-06 07:40 | 53.01713 | -20.42359 | 36094 ft | 444 kts | 276° |
| 2026-05-06 07:40 | 53.02102 | -20.52590 | 36094 ft | 444 kts | 275° |
| 2026-05-06 07:41 | 53.02482 | -20.62824 | 36097 ft | 444 kts | 275° |
| 2026-05-06 07:41 | 53.02853 | -20.73050 | 36097 ft | 444 kts | 275° |
| 2026-05-06 07:42 | 53.03214 | -20.83230 | 36094 ft | 444 kts | 275° |
| 2026-05-06 07:42 | 53.03569 | -20.93483 | 36094 ft | 444 kts | 275° |
| 2026-05-06 07:43 | 53.03914 | -21.03733 | 36097 ft | 444 kts | 275° |